sensor_id;sensor_type;location;lat;lon;timestamp;temperature;humidity
47576;DHT22;33304;52.456;13.328;2023-07-31T00:00:08;14.80;99.90
47576;DHT22;33304;52.456;13.328;2023-07-31T00:02:36;14.80;99.90
47576;DHT22;33304;52.456;13.328;2023-07-31T00:05:04;14.80;99.90
47576;DHT22;33304;52.456;13.328;2023-07-31T00:07:32;14.80;99.90
47576;DHT22;33304;52.456;13.328;2023-07-31T00:09:59;14.80;99.90
47576;DHT22;33304;52.456;13.328;2023-07-31T00:12:27;14.70;99.90
47576;DHT22;33304;52.456;13.328;2023-07-31T00:14:54;14.70;99.90
47576;DHT22;33304;52.456;13.328;2023-07-31T00:17:21;14.80;99.90
47576;DHT22;33304;52.456;13.328;2023-07-31T00:19:48;14.80;99.90
47576;DHT22;33304;52.456;13.328;2023-07-31T00:22:16;14.80;99.90
47576;DHT22;33304;52.456;13.328;2023-07-31T00:24:43;14.90;99.90
47576;DHT22;33304;52.456;13.328;2023-07-31T00:27:10;14.90;99.90
47576;DHT22;33304;52.456;13.328;2023-07-31T00:29:39;14.90;99.90
47576;DHT22;33304;52.456;13.328;2023-07-31T00:32:06;14.90;99.90
47576;DHT22;33304;52.456;13.328;2023-07-31T00:34:33;14.90;99.90
47576;DHT22;33304;52.456;13.328;2023-07-31T00:37:02;14.90;99.90
47576;DHT22;33304;52.456;13.328;2023-07-31T00:39:30;14.90;99.90
47576;DHT22;33304;52.456;13.328;2023-07-31T00:41:59;14.90;99.90
47576;DHT22;33304;52.456;13.328;2023-07-31T00:44:26;14.90;99.90
47576;DHT22;33304;52.456;13.328;2023-07-31T00:46:56;15.10;99.90
47576;DHT22;33304;52.456;13.328;2023-07-31T00:49:24;15.20;99.90
47576;DHT22;33304;52.456;13.328;2023-07-31T00:51:51;15.00;99.90
47576;DHT22;33304;52.456;13.328;2023-07-31T00:54:18;15.10;99.90
47576;DHT22;33304;52.456;13.328;2023-07-31T00:56:46;15.20;99.90
47576;DHT22;33304;52.456;13.328;2023-07-31T00:59:14;15.20;99.90
47576;DHT22;33304;52.456;13.328;2023-07-31T01:01:41;15.20;99.90
47576;DHT22;33304;52.456;13.328;2023-07-31T01:04:09;15.20;99.90
47576;DHT22;33304;52.456;13.328;2023-07-31T01:06:43;15.10;99.90
47576;DHT22;33304;52.456;13.328;2023-07-31T01:09:18;15.00;99.90
47576;DHT22;33304;52.456;13.328;2023-07-31T01:11:49;15.00;99.90
47576;DHT22;33304;52.456;13.328;2023-07-31T01:14:19;15.20;99.90
47576;DHT22;33304;52.456;13.328;2023-07-31T01:16:46;15.20;99.90
47576;DHT22;33304;52.456;13.328;2023-07-31T01:19:15;15.10;99.90
47576;DHT22;33304;52.456;13.328;2023-07-31T01:21:59;15.10;99.90
47576;DHT22;33304;52.456;13.328;2023-07-31T01:24:38;15.10;99.90
47576;DHT22;33304;52.456;13.328;2023-07-31T01:27:12;15.10;99.90
47576;DHT22;33304;52.456;13.328;2023-07-31T01:29:47;15.10;99.90
47576;DHT22;33304;52.456;13.328;2023-07-31T01:32:18;15.00;99.90
47576;DHT22;33304;52.456;13.328;2023-07-31T01:34:45;15.10;99.90
47576;DHT22;33304;52.456;13.328;2023-07-31T01:37:13;15.10;99.90
47576;DHT22;33304;52.456;13.328;2023-07-31T01:39:40;15.00;99.90
47576;DHT22;33304;52.456;13.328;2023-07-31T01:42:07;15.00;99.90
47576;DHT22;33304;52.456;13.328;2023-07-31T01:44:36;15.30;99.90
47576;DHT22;33304;52.456;13.328;2023-07-31T01:47:05;15.40;99.90
47576;DHT22;33304;52.456;13.328;2023-07-31T01:49:32;15.30;99.90
47576;DHT22;33304;52.456;13.328;2023-07-31T01:52:00;15.30;99.90
47576;DHT22;33304;52.456;13.328;2023-07-31T01:54:27;15.30;99.90
47576;DHT22;33304;52.456;13.328;2023-07-31T01:56:54;15.30;99.90
47576;DHT22;33304;52.456;13.328;2023-07-31T01:59:21;15.30;99.90
47576;DHT22;33304;52.456;13.328;2023-07-31T02:01:50;15.30;99.90
47576;DHT22;33304;52.456;13.328;2023-07-31T02:04:17;15.20;99.90
47576;DHT22;33304;52.456;13.328;2023-07-31T02:06:44;15.30;99.90
47576;DHT22;33304;52.456;13.328;2023-07-31T02:09:11;15.20;99.90
47576;DHT22;33304;52.456;13.328;2023-07-31T02:11:38;15.30;99.90
47576;DHT22;33304;52.456;13.328;2023-07-31T02:14:05;15.30;99.90
47576;DHT22;33304;52.456;13.328;2023-07-31T02:16:33;15.40;99.90
47576;DHT22;33304;52.456;13.328;2023-07-31T02:19:02;15.40;99.90
47576;DHT22;33304;52.456;13.328;2023-07-31T02:21:29;15.30;99.90
47576;DHT22;33304;52.456;13.328;2023-07-31T02:23:56;15.20;99.90
47576;DHT22;33304;52.456;13.328;2023-07-31T02:26:23;15.20;99.90
47576;DHT22;33304;52.456;13.328;2023-07-31T02:28:50;15.30;99.90
47576;DHT22;33304;52.456;13.328;2023-07-31T02:31:17;15.20;99.90
47576;DHT22;33304;52.456;13.328;2023-07-31T02:33:45;15.20;99.90
47576;DHT22;33304;52.456;13.328;2023-07-31T02:36:13;15.30;99.90
47576;DHT22;33304;52.456;13.328;2023-07-31T02:38:41;15.20;99.90
47576;DHT22;33304;52.456;13.328;2023-07-31T02:41:08;15.20;99.90
47576;DHT22;33304;52.456;13.328;2023-07-31T02:43:35;15.30;99.90
47576;DHT22;33304;52.456;13.328;2023-07-31T02:46:02;15.30;99.90
47576;DHT22;33304;52.456;13.328;2023-07-31T02:48:29;15.30;99.90
47576;DHT22;33304;52.456;13.328;2023-07-31T02:50:56;15.30;99.90
47576;DHT22;33304;52.456;13.328;2023-07-31T02:53:25;15.20;99.90
47576;DHT22;33304;52.456;13.328;2023-07-31T02:55:52;15.30;99.90
47576;DHT22;33304;52.456;13.328;2023-07-31T02:58:19;15.30;99.90
47576;DHT22;33304;52.456;13.328;2023-07-31T03:00:46;15.30;99.90
47576;DHT22;33304;52.456;13.328;2023-07-31T03:03:13;15.40;99.90
47576;DHT22;33304;52.456;13.328;2023-07-31T03:05:40;15.40;99.90
47576;DHT22;33304;52.456;13.328;2023-07-31T03:08:08;15.30;99.90
47576;DHT22;33304;52.456;13.328;2023-07-31T03:10:36;15.40;99.90
47576;DHT22;33304;52.456;13.328;2023-07-31T03:13:04;15.30;99.90
47576;DHT22;33304;52.456;13.328;2023-07-31T03:15:31;15.30;99.90
47576;DHT22;33304;52.456;13.328;2023-07-31T03:17:59;15.30;99.90
47576;DHT22;33304;52.456;13.328;2023-07-31T03:20:26;15.20;99.90
47576;DHT22;33304;52.456;13.328;2023-07-31T03:22:53;15.20;99.90
47576;DHT22;33304;52.456;13.328;2023-07-31T03:25:20;15.30;99.90
47576;DHT22;33304;52.456;13.328;2023-07-31T03:27:48;15.20;99.90
47576;DHT22;33304;52.456;13.328;2023-07-31T03:30:15;15.20;99.90
47576;DHT22;33304;52.456;13.328;2023-07-31T03:32:42;15.20;99.90
47576;DHT22;33304;52.456;13.328;2023-07-31T03:35:10;15.20;99.90
47576;DHT22;33304;52.456;13.328;2023-07-31T03:37:37;15.20;99.90
47576;DHT22;33304;52.456;13.328;2023-07-31T03:40:04;15.20;99.90
47576;DHT22;33304;52.456;13.328;2023-07-31T03:42:32;15.30;99.90
47576;DHT22;33304;52.456;13.328;2023-07-31T03:45:00;15.30;99.90
47576;DHT22;33304;52.456;13.328;2023-07-31T03:47:27;15.30;99.90
47576;DHT22;33304;52.456;13.328;2023-07-31T03:49:54;15.20;99.90
47576;DHT22;33304;52.456;13.328;2023-07-31T03:52:22;15.30;99.90
47576;DHT22;33304;52.456;13.328;2023-07-31T03:54:49;15.20;99.90
47576;DHT22;33304;52.456;13.328;2023-07-31T03:57:16;15.10;99.90
47576;DHT22;33304;52.456;13.328;2023-07-31T03:59:43;15.20;99.90
47576;DHT22;33304;52.456;13.328;2023-07-31T04:02:11;15.30;99.90
47576;DHT22;33304;52.456;13.328;2023-07-31T04:04:40;15.30;99.90
47576;DHT22;33304;52.456;13.328;2023-07-31T04:07:07;15.30;99.90
47576;DHT22;33304;52.456;13.328;2023-07-31T04:09:34;15.20;99.90
47576;DHT22;33304;52.456;13.328;2023-07-31T04:12:01;15.20;99.90
47576;DHT22;33304;52.456;13.328;2023-07-31T04:14:28;15.10;99.90
47576;DHT22;33304;52.456;13.328;2023-07-31T04:16:55;15.10;99.90
47576;DHT22;33304;52.456;13.328;2023-07-31T04:19:24;15.10;99.90
47576;DHT22;33304;52.456;13.328;2023-07-31T04:21:51;15.10;99.90
47576;DHT22;33304;52.456;13.328;2023-07-31T04:24:18;15.20;99.90
47576;DHT22;33304;52.456;13.328;2023-07-31T04:26:50;15.20;99.90
47576;DHT22;33304;52.456;13.328;2023-07-31T04:29:17;15.30;99.90
47576;DHT22;33304;52.456;13.328;2023-07-31T04:31:44;15.30;99.90
47576;DHT22;33304;52.456;13.328;2023-07-31T04:34:11;15.30;99.90
47576;DHT22;33304;52.456;13.328;2023-07-31T04:36:40;15.40;99.90
47576;DHT22;33304;52.456;13.328;2023-07-31T04:39:07;15.30;99.90
47576;DHT22;33304;52.456;13.328;2023-07-31T04:41:34;15.40;99.90
47576;DHT22;33304;52.456;13.328;2023-07-31T04:44:01;15.50;99.90
47576;DHT22;33304;52.456;13.328;2023-07-31T04:46:29;15.50;99.90
47576;DHT22;33304;52.456;13.328;2023-07-31T04:48:56;15.50;99.90
47576;DHT22;33304;52.456;13.328;2023-07-31T04:51:24;15.50;99.90
47576;DHT22;33304;52.456;13.328;2023-07-31T04:53:52;15.50;99.90
47576;DHT22;33304;52.456;13.328;2023-07-31T04:56:19;15.60;99.90
47576;DHT22;33304;52.456;13.328;2023-07-31T04:58:46;15.60;99.90
47576;DHT22;33304;52.456;13.328;2023-07-31T05:01:13;15.60;99.90
47576;DHT22;33304;52.456;13.328;2023-07-31T05:03:40;15.60;99.90
47576;DHT22;33304;52.456;13.328;2023-07-31T05:06:07;15.80;99.90
47576;DHT22;33304;52.456;13.328;2023-07-31T05:08:35;15.80;99.90
47576;DHT22;33304;52.456;13.328;2023-07-31T05:11:03;15.90;99.90
47576;DHT22;33304;52.456;13.328;2023-07-31T05:13:30;15.90;99.90
47576;DHT22;33304;52.456;13.328;2023-07-31T05:15:57;15.90;99.90
47576;DHT22;33304;52.456;13.328;2023-07-31T05:18:24;15.80;99.90
47576;DHT22;33304;52.456;13.328;2023-07-31T05:20:51;15.80;99.90
47576;DHT22;33304;52.456;13.328;2023-07-31T05:23:18;15.80;99.90
47576;DHT22;33304;52.456;13.328;2023-07-31T05:25:45;15.70;99.90
47576;DHT22;33304;52.456;13.328;2023-07-31T05:28:14;15.70;99.90
47576;DHT22;33304;52.456;13.328;2023-07-31T05:30:41;15.80;99.90
47576;DHT22;33304;52.456;13.328;2023-07-31T05:33:08;15.70;99.90
47576;DHT22;33304;52.456;13.328;2023-07-31T05:35:35;15.60;99.90
47576;DHT22;33304;52.456;13.328;2023-07-31T05:38:02;15.60;99.90
47576;DHT22;33304;52.456;13.328;2023-07-31T05:40:32;15.70;99.90
47576;DHT22;33304;52.456;13.328;2023-07-31T05:42:59;15.70;99.90
47576;DHT22;33304;52.456;13.328;2023-07-31T05:45:27;15.80;99.90
47576;DHT22;33304;52.456;13.328;2023-07-31T05:47:54;15.70;99.90
47576;DHT22;33304;52.456;13.328;2023-07-31T05:50:21;15.70;99.90
47576;DHT22;33304;52.456;13.328;2023-07-31T05:52:48;15.90;99.90
47576;DHT22;33304;52.456;13.328;2023-07-31T05:55:15;16.10;99.90
47576;DHT22;33304;52.456;13.328;2023-07-31T05:57:43;16.00;99.90
47576;DHT22;33304;52.456;13.328;2023-07-31T06:00:12;16.00;99.90
47576;DHT22;33304;52.456;13.328;2023-07-31T06:02:41;16.00;99.90
47576;DHT22;33304;52.456;13.328;2023-07-31T06:05:08;16.20;99.90
47576;DHT22;33304;52.456;13.328;2023-07-31T06:07:36;16.20;99.90
47576;DHT22;33304;52.456;13.328;2023-07-31T06:10:03;16.00;99.90
47576;DHT22;33304;52.456;13.328;2023-07-31T06:12:31;16.10;99.90
47576;DHT22;33304;52.456;13.328;2023-07-31T06:14:59;16.00;99.90
47576;DHT22;33304;52.456;13.328;2023-07-31T06:17:26;15.90;99.90
47576;DHT22;33304;52.456;13.328;2023-07-31T06:19:56;16.00;99.90
47576;DHT22;33304;52.456;13.328;2023-07-31T06:22:23;16.10;99.90
47576;DHT22;33304;52.456;13.328;2023-07-31T06:24:50;16.20;99.90
47576;DHT22;33304;52.456;13.328;2023-07-31T06:27:17;16.10;99.90
47576;DHT22;33304;52.456;13.328;2023-07-31T06:29:44;16.20;99.90
47576;DHT22;33304;52.456;13.328;2023-07-31T06:32:11;16.20;99.90
47576;DHT22;33304;52.456;13.328;2023-07-31T06:34:38;16.20;99.90
47576;DHT22;33304;52.456;13.328;2023-07-31T06:37:07;16.30;99.90
47576;DHT22;33304;52.456;13.328;2023-07-31T06:39:34;16.30;99.90
47576;DHT22;33304;52.456;13.328;2023-07-31T06:42:01;16.30;99.90
47576;DHT22;33304;52.456;13.328;2023-07-31T06:44:28;16.20;99.90
47576;DHT22;33304;52.456;13.328;2023-07-31T06:46:56;16.20;99.90
47576;DHT22;33304;52.456;13.328;2023-07-31T06:49:23;16.30;99.90
47576;DHT22;33304;52.456;13.328;2023-07-31T06:51:50;16.30;99.90
47576;DHT22;33304;52.456;13.328;2023-07-31T06:54:18;16.30;99.90
47576;DHT22;33304;52.456;13.328;2023-07-31T06:56:45;16.40;99.90
47576;DHT22;33304;52.456;13.328;2023-07-31T06:59:13;16.30;99.90
47576;DHT22;33304;52.456;13.328;2023-07-31T07:01:40;16.10;99.90
47576;DHT22;33304;52.456;13.328;2023-07-31T07:04:07;16.10;99.90
47576;DHT22;33304;52.456;13.328;2023-07-31T07:06:34;16.10;99.90
47576;DHT22;33304;52.456;13.328;2023-07-31T07:09:01;16.10;99.90
47576;DHT22;33304;52.456;13.328;2023-07-31T07:11:30;16.00;99.90
47576;DHT22;33304;52.456;13.328;2023-07-31T07:13:58;15.90;99.90
47576;DHT22;33304;52.456;13.328;2023-07-31T07:16:25;16.00;99.90
47576;DHT22;33304;52.456;13.328;2023-07-31T07:18:52;15.90;99.90
47576;DHT22;33304;52.456;13.328;2023-07-31T07:21:19;16.00;99.90
47576;DHT22;33304;52.456;13.328;2023-07-31T07:23:46;16.00;99.90
47576;DHT22;33304;52.456;13.328;2023-07-31T07:26:13;16.10;99.90
47576;DHT22;33304;52.456;13.328;2023-07-31T07:28:42;16.00;99.90
47576;DHT22;33304;52.456;13.328;2023-07-31T07:31:09;16.10;99.90
47576;DHT22;33304;52.456;13.328;2023-07-31T07:33:36;16.30;99.90
47576;DHT22;33304;52.456;13.328;2023-07-31T07:36:04;16.30;99.90
47576;DHT22;33304;52.456;13.328;2023-07-31T07:38:35;16.30;99.90
47576;DHT22;33304;52.456;13.328;2023-07-31T07:41:05;16.40;99.90
47576;DHT22;33304;52.456;13.328;2023-07-31T07:43:32;16.50;99.90
47576;DHT22;33304;52.456;13.328;2023-07-31T07:46:00;16.60;99.90
47576;DHT22;33304;52.456;13.328;2023-07-31T07:48:28;16.60;99.90
47576;DHT22;33304;52.456;13.328;2023-07-31T07:50:55;16.70;99.90
47576;DHT22;33304;52.456;13.328;2023-07-31T07:53:22;16.70;99.90
47576;DHT22;33304;52.456;13.328;2023-07-31T07:55:49;16.70;99.90
47576;DHT22;33304;52.456;13.328;2023-07-31T07:58:16;16.70;99.90
47576;DHT22;33304;52.456;13.328;2023-07-31T08:00:48;16.60;99.90
47576;DHT22;33304;52.456;13.328;2023-07-31T08:03:17;16.30;99.90
47576;DHT22;33304;52.456;13.328;2023-07-31T08:05:44;16.40;99.90
47576;DHT22;33304;52.456;13.328;2023-07-31T08:08:14;16.30;99.90
47576;DHT22;33304;52.456;13.328;2023-07-31T08:10:41;16.40;99.90
47576;DHT22;33304;52.456;13.328;2023-07-31T08:13:09;16.40;99.90
47576;DHT22;33304;52.456;13.328;2023-07-31T08:15:36;16.30;99.90
47576;DHT22;33304;52.456;13.328;2023-07-31T08:18:03;16.30;99.90
47576;DHT22;33304;52.456;13.328;2023-07-31T08:20:32;16.20;99.90
47576;DHT22;33304;52.456;13.328;2023-07-31T08:22:59;16.30;99.90
47576;DHT22;33304;52.456;13.328;2023-07-31T08:25:26;16.40;99.90
47576;DHT22;33304;52.456;13.328;2023-07-31T08:27:53;16.30;99.90
47576;DHT22;33304;52.456;13.328;2023-07-31T08:30:21;16.50;99.90
47576;DHT22;33304;52.456;13.328;2023-07-31T08:32:49;16.50;99.90
47576;DHT22;33304;52.456;13.328;2023-07-31T08:35:16;16.60;99.90
47576;DHT22;33304;52.456;13.328;2023-07-31T08:37:44;16.60;99.90
47576;DHT22;33304;52.456;13.328;2023-07-31T08:40:11;16.60;99.90
47576;DHT22;33304;52.456;13.328;2023-07-31T08:42:43;16.70;99.90
47576;DHT22;33304;52.456;13.328;2023-07-31T08:45:14;16.80;99.90
47576;DHT22;33304;52.456;13.328;2023-07-31T08:47:44;16.80;99.90
47576;DHT22;33304;52.456;13.328;2023-07-31T08:50:12;16.80;99.90
47576;DHT22;33304;52.456;13.328;2023-07-31T08:52:40;16.80;99.90
47576;DHT22;33304;52.456;13.328;2023-07-31T08:55:09;16.90;99.90
47576;DHT22;33304;52.456;13.328;2023-07-31T08:57:37;16.90;99.90
47576;DHT22;33304;52.456;13.328;2023-07-31T09:00:07;16.90;99.90
47576;DHT22;33304;52.456;13.328;2023-07-31T09:02:37;17.00;99.90
47576;DHT22;33304;52.456;13.328;2023-07-31T09:05:06;17.10;99.90
47576;DHT22;33304;52.456;13.328;2023-07-31T09:07:35;17.10;94.60
47576;DHT22;33304;52.456;13.328;2023-07-31T09:10:03;17.30;92.70
47576;DHT22;33304;52.456;13.328;2023-07-31T09:12:31;17.10;85.80
47576;DHT22;33304;52.456;13.328;2023-07-31T09:14:59;17.30;87.20
47576;DHT22;33304;52.456;13.328;2023-07-31T09:17:29;17.20;82.80
47576;DHT22;33304;52.456;13.328;2023-07-31T09:19:57;17.30;82.90
47576;DHT22;33304;52.456;13.328;2023-07-31T09:22:34;17.30;86.80
47576;DHT22;33304;52.456;13.328;2023-07-31T09:25:14;17.20;90.80
47576;DHT22;33304;52.456;13.328;2023-07-31T09:27:50;17.20;92.10
47576;DHT22;33304;52.456;13.328;2023-07-31T09:30:18;17.10;92.90
47576;DHT22;33304;52.456;13.328;2023-07-31T09:32:46;17.00;95.80
47576;DHT22;33304;52.456;13.328;2023-07-31T09:35:18;16.90;95.20
47576;DHT22;33304;52.456;13.328;2023-07-31T09:37:51;16.90;99.90
47576;DHT22;33304;52.456;13.328;2023-07-31T09:40:29;16.90;99.90
47576;DHT22;33304;52.456;13.328;2023-07-31T09:42:59;17.00;98.70
47576;DHT22;33304;52.456;13.328;2023-07-31T09:45:26;17.00;95.80
47576;DHT22;33304;52.456;13.328;2023-07-31T09:47:54;17.00;93.40
47576;DHT22;33304;52.456;13.328;2023-07-31T09:50:22;17.10;91.50
47576;DHT22;33304;52.456;13.328;2023-07-31T09:52:50;17.20;92.60
47576;DHT22;33304;52.456;13.328;2023-07-31T09:55:18;17.20;89.00
47576;DHT22;33304;52.456;13.328;2023-07-31T09:57:47;17.10;91.80
47576;DHT22;33304;52.456;13.328;2023-07-31T10:00:17;17.10;91.30
47576;DHT22;33304;52.456;13.328;2023-07-31T10:02:45;17.10;92.60
47576;DHT22;33304;52.456;13.328;2023-07-31T10:05:14;17.10;91.60
47576;DHT22;33304;52.456;13.328;2023-07-31T10:07:43;17.30;91.40
47576;DHT22;33304;52.456;13.328;2023-07-31T10:10:11;17.30;92.20
47576;DHT22;33304;52.456;13.328;2023-07-31T10:12:39;17.40;92.50
47576;DHT22;33304;52.456;13.328;2023-07-31T10:15:08;17.40;92.20
47576;DHT22;33304;52.456;13.328;2023-07-31T10:17:36;17.50;90.40
47576;DHT22;33304;52.456;13.328;2023-07-31T10:20:04;17.50;90.20
47576;DHT22;33304;52.456;13.328;2023-07-31T10:22:33;17.50;90.10
47576;DHT22;33304;52.456;13.328;2023-07-31T10:25:01;17.50;90.30
47576;DHT22;33304;52.456;13.328;2023-07-31T10:27:28;17.60;88.70
47576;DHT22;33304;52.456;13.328;2023-07-31T10:29:56;17.70;90.60
47576;DHT22;33304;52.456;13.328;2023-07-31T10:32:25;17.70;85.00
47576;DHT22;33304;52.456;13.328;2023-07-31T10:34:53;18.00;85.40
47576;DHT22;33304;52.456;13.328;2023-07-31T10:37:23;18.10;83.60
47576;DHT22;33304;52.456;13.328;2023-07-31T10:39:58;18.30;81.00
47576;DHT22;33304;52.456;13.328;2023-07-31T10:42:30;18.50;79.20
47576;DHT22;33304;52.456;13.328;2023-07-31T10:44:58;18.60;68.20
47576;DHT22;33304;52.456;13.328;2023-07-31T10:47:26;18.90;70.50
47576;DHT22;33304;52.456;13.328;2023-07-31T10:50:11;19.20;68.40
47576;DHT22;33304;52.456;13.328;2023-07-31T10:52:38;19.70;61.50
47576;DHT22;33304;52.456;13.328;2023-07-31T10:55:25;19.90;56.50
47576;DHT22;33304;52.456;13.328;2023-07-31T10:57:54;19.90;53.50
47576;DHT22;33304;52.456;13.328;2023-07-31T11:00:22;19.90;54.50
47576;DHT22;33304;52.456;13.328;2023-07-31T11:03:00;20.20;52.50
47576;DHT22;33304;52.456;13.328;2023-07-31T11:05:51;20.50;49.00
47576;DHT22;33304;52.456;13.328;2023-07-31T11:08:21;20.70;45.90
47576;DHT22;33304;52.456;13.328;2023-07-31T11:10:51;20.60;44.30
47576;DHT22;33304;52.456;13.328;2023-07-31T11:13:19;20.30;42.20
47576;DHT22;33304;52.456;13.328;2023-07-31T11:15:46;20.20;45.30
47576;DHT22;33304;52.456;13.328;2023-07-31T11:18:14;20.30;43.30
47576;DHT22;33304;52.456;13.328;2023-07-31T11:20:42;20.30;43.10
47576;DHT22;33304;52.456;13.328;2023-07-31T11:23:11;20.40;42.70
47576;DHT22;33304;52.456;13.328;2023-07-31T11:25:39;20.30;42.40
47576;DHT22;33304;52.456;13.328;2023-07-31T11:28:09;20.40;42.60
47576;DHT22;33304;52.456;13.328;2023-07-31T11:30:36;20.40;38.70
47576;DHT22;33304;52.456;13.328;2023-07-31T11:33:04;20.20;40.30
47576;DHT22;33304;52.456;13.328;2023-07-31T11:35:33;20.20;40.40
47576;DHT22;33304;52.456;13.328;2023-07-31T11:38:00;20.30;38.10
47576;DHT22;33304;52.456;13.328;2023-07-31T11:40:29;20.10;37.90
47576;DHT22;33304;52.456;13.328;2023-07-31T11:42:57;20.20;38.90
47576;DHT22;33304;52.456;13.328;2023-07-31T11:45:26;20.20;39.00
47576;DHT22;33304;52.456;13.328;2023-07-31T11:47:54;20.30;40.20
47576;DHT22;33304;52.456;13.328;2023-07-31T11:50:22;20.30;39.80
47576;DHT22;33304;52.456;13.328;2023-07-31T11:52:53;20.30;39.70
47576;DHT22;33304;52.456;13.328;2023-07-31T11:55:22;20.20;39.10
47576;DHT22;33304;52.456;13.328;2023-07-31T11:57:51;20.20;40.70
47576;DHT22;33304;52.456;13.328;2023-07-31T12:00:19;20.20;39.10
47576;DHT22;33304;52.456;13.328;2023-07-31T12:02:47;20.00;40.70
47576;DHT22;33304;52.456;13.328;2023-07-31T12:05:14;20.10;40.80
47576;DHT22;33304;52.456;13.328;2023-07-31T12:07:46;20.20;38.90
47576;DHT22;33304;52.456;13.328;2023-07-31T12:10:27;20.30;38.30
47576;DHT22;33304;52.456;13.328;2023-07-31T12:13:01;20.20;38.50
47576;DHT22;33304;52.456;13.328;2023-07-31T12:15:33;20.20;38.50
47576;DHT22;33304;52.456;13.328;2023-07-31T12:18:04;20.10;37.50
47576;DHT22;33304;52.456;13.328;2023-07-31T12:20:32;20.20;37.90
47576;DHT22;33304;52.456;13.328;2023-07-31T12:23:00;20.40;37.10
47576;DHT22;33304;52.456;13.328;2023-07-31T12:25:33;20.30;36.90
47576;DHT22;33304;52.456;13.328;2023-07-31T12:28:07;20.40;36.30
47576;DHT22;33304;52.456;13.328;2023-07-31T12:30:38;20.40;36.80
47576;DHT22;33304;52.456;13.328;2023-07-31T12:33:06;20.50;37.10
47576;DHT22;33304;52.456;13.328;2023-07-31T12:35:38;20.60;35.90
47576;DHT22;33304;52.456;13.328;2023-07-31T12:38:07;20.60;36.20
47576;DHT22;33304;52.456;13.328;2023-07-31T12:40:37;20.60;37.00
47576;DHT22;33304;52.456;13.328;2023-07-31T12:43:04;20.80;36.20
47576;DHT22;33304;52.456;13.328;2023-07-31T12:45:33;20.80;35.90
47576;DHT22;33304;52.456;13.328;2023-07-31T12:48:01;20.70;35.70
47576;DHT22;33304;52.456;13.328;2023-07-31T12:50:28;20.80;36.70
47576;DHT22;33304;52.456;13.328;2023-07-31T12:52:55;20.50;36.70
47576;DHT22;33304;52.456;13.328;2023-07-31T12:55:23;20.60;36.10
47576;DHT22;33304;52.456;13.328;2023-07-31T12:57:50;20.60;34.80
47576;DHT22;33304;52.456;13.328;2023-07-31T13:00:18;20.60;35.40
47576;DHT22;33304;52.456;13.328;2023-07-31T13:02:46;20.70;36.30
47576;DHT22;33304;52.456;13.328;2023-07-31T13:05:13;20.60;35.20
47576;DHT22;33304;52.456;13.328;2023-07-31T13:07:41;20.60;35.70
47576;DHT22;33304;52.456;13.328;2023-07-31T13:10:09;20.60;36.00
47576;DHT22;33304;52.456;13.328;2023-07-31T13:12:36;20.60;36.20
47576;DHT22;33304;52.456;13.328;2023-07-31T13:15:03;20.50;35.40
47576;DHT22;33304;52.456;13.328;2023-07-31T13:17:31;20.50;36.90
47576;DHT22;33304;52.456;13.328;2023-07-31T13:19:59;20.40;36.90
47576;DHT22;33304;52.456;13.328;2023-07-31T13:22:27;20.50;36.50
47576;DHT22;33304;52.456;13.328;2023-07-31T13:24:54;20.40;37.20
47576;DHT22;33304;52.456;13.328;2023-07-31T13:27:21;20.40;36.50
47576;DHT22;33304;52.456;13.328;2023-07-31T13:29:48;20.60;38.20
47576;DHT22;33304;52.456;13.328;2023-07-31T13:32:15;20.80;37.20
47576;DHT22;33304;52.456;13.328;2023-07-31T13:34:43;21.20;35.00
47576;DHT22;33304;52.456;13.328;2023-07-31T13:37:11;21.60;32.90
47576;DHT22;33304;52.456;13.328;2023-07-31T13:39:39;21.90;32.90
47576;DHT22;33304;52.456;13.328;2023-07-31T13:42:07;22.20;31.50
47576;DHT22;33304;52.456;13.328;2023-07-31T13:44:34;22.40;32.00
47576;DHT22;33304;52.456;13.328;2023-07-31T13:47:02;22.50;30.50
47576;DHT22;33304;52.456;13.328;2023-07-31T13:49:29;22.30;30.70
47576;DHT22;33304;52.456;13.328;2023-07-31T13:51:57;21.90;31.60
47576;DHT22;33304;52.456;13.328;2023-07-31T13:54:25;21.90;31.20
47576;DHT22;33304;52.456;13.328;2023-07-31T13:56:53;21.60;30.70
47576;DHT22;33304;52.456;13.328;2023-07-31T13:59:20;21.30;32.80
47576;DHT22;33304;52.456;13.328;2023-07-31T14:01:48;21.30;32.50
47576;DHT22;33304;52.456;13.328;2023-07-31T14:04:15;21.20;33.20
47576;DHT22;33304;52.456;13.328;2023-07-31T14:06:43;21.20;33.20
47576;DHT22;33304;52.456;13.328;2023-07-31T14:09:10;21.30;33.50
47576;DHT22;33304;52.456;13.328;2023-07-31T14:11:38;21.40;33.30
47576;DHT22;33304;52.456;13.328;2023-07-31T14:14:06;21.20;33.70
47576;DHT22;33304;52.456;13.328;2023-07-31T14:16:33;21.20;33.70
47576;DHT22;33304;52.456;13.328;2023-07-31T14:19:00;21.20;33.40
47576;DHT22;33304;52.456;13.328;2023-07-31T14:21:27;21.00;34.60
47576;DHT22;33304;52.456;13.328;2023-07-31T14:23:54;21.00;33.20
47576;DHT22;33304;52.456;13.328;2023-07-31T14:26:21;21.00;33.30
47576;DHT22;33304;52.456;13.328;2023-07-31T14:28:49;21.00;33.50
47576;DHT22;33304;52.456;13.328;2023-07-31T14:31:16;21.00;33.80
47576;DHT22;33304;52.456;13.328;2023-07-31T14:33:43;21.10;33.40
47576;DHT22;33304;52.456;13.328;2023-07-31T14:36:10;21.20;32.80
47576;DHT22;33304;52.456;13.328;2023-07-31T14:38:37;21.10;31.70
47576;DHT22;33304;52.456;13.328;2023-07-31T14:41:05;21.20;32.70
47576;DHT22;33304;52.456;13.328;2023-07-31T14:43:32;21.30;32.80
47576;DHT22;33304;52.456;13.328;2023-07-31T14:46:00;21.20;31.50
47576;DHT22;33304;52.456;13.328;2023-07-31T14:48:27;21.30;30.00
47576;DHT22;33304;52.456;13.328;2023-07-31T14:50:55;21.20;29.80
47576;DHT22;33304;52.456;13.328;2023-07-31T14:53:22;21.10;29.80
47576;DHT22;33304;52.456;13.328;2023-07-31T14:55:49;21.00;30.10
47576;DHT22;33304;52.456;13.328;2023-07-31T14:58:16;21.00;30.40
47576;DHT22;33304;52.456;13.328;2023-07-31T15:00:44;21.10;30.70
47576;DHT22;33304;52.456;13.328;2023-07-31T15:03:12;21.20;30.80
47576;DHT22;33304;52.456;13.328;2023-07-31T15:05:39;21.10;31.70
47576;DHT22;33304;52.456;13.328;2023-07-31T15:08:06;21.00;32.40
47576;DHT22;33304;52.456;13.328;2023-07-31T15:10:34;21.00;32.40
47576;DHT22;33304;52.456;13.328;2023-07-31T15:13:01;20.90;31.90
47576;DHT22;33304;52.456;13.328;2023-07-31T15:15:28;20.90;32.00
47576;DHT22;33304;52.456;13.328;2023-07-31T15:17:55;20.90;34.10
47576;DHT22;33304;52.456;13.328;2023-07-31T15:20:24;20.80;34.80